Granville, Vermont
Current Conditions -  °F | °C
As of 8:35 AM on Wednesday 26 Nov 2014 (Local Time) from K6B0 Reporting Station
Broken Clouds Broken Clouds  
Wind Chill: 36°   Ceiling: 12000
Heat Index: 36°   Visibility: 10mi
Dew Point: 23°   Wind: 3mph
Humidity: 60%   Direction: 20°NNE
Pressure: 30.23"   Gusts: NA
Location:  43.98°N, 72.85°W
Report Text: K6B0 261335Z AUTO 02003KT 10SM BKN120 02/M05 A3023 RMK AO2 T00221049
Loading
Personal Weather Stations






























Interactive Weather Map New forecast layout! Learn more

10-Day Weather Forecast

Advertisements
Track Severe Weather on mobile